sensor_id;sensor_type;location;lat;lon;timestamp;pressure;altitude;pressure_sealevel;temperature;humidity
12775;BME280;6451;42.630;23.382;2023-03-01T00:01:53;94928.03;;;5.90;100.00
12775;BME280;6451;42.630;23.382;2023-03-01T00:04:24;94918.38;;;5.89;100.00
12775;BME280;6451;42.630;23.382;2023-03-01T00:07:12;94914.09;;;5.88;100.00
12775;BME280;6451;42.630;23.382;2023-03-01T00:09:40;94916.69;;;5.79;100.00
12775;BME280;6451;42.630;23.382;2023-03-01T00:12:11;94919.88;;;5.81;100.00
12775;BME280;6451;42.630;23.382;2023-03-01T00:14:38;94921.13;;;5.75;100.00
12775;BME280;6451;42.630;23.382;2023-03-01T00:17:11;94914.50;;;5.81;100.00
12775;BME280;6451;42.630;23.382;2023-03-01T00:19:40;94914.63;;;5.76;100.00
12775;BME280;6451;42.630;23.382;2023-03-01T00:22:11;94896.97;;;5.56;100.00
12775;BME280;6451;42.630;23.382;2023-03-01T00:24:44;94889.22;;;5.69;100.00
12775;BME280;6451;42.630;23.382;2023-03-01T00:27:12;94888.59;;;5.72;100.00
12775;BME280;6451;42.630;23.382;2023-03-01T00:29:41;94885.41;;;5.56;100.00
12775;BME280;6451;42.630;23.382;2023-03-01T00:32:10;94881.22;;;5.64;100.00
12775;BME280;6451;42.630;23.382;2023-03-01T00:34:38;94878.34;;;5.60;100.00
12775;BME280;6451;42.630;23.382;2023-03-01T00:37:19;94879.16;;;5.61;100.00
12775;BME280;6451;42.630;23.382;2023-03-01T00:39:55;94878.25;;;5.51;100.00
12775;BME280;6451;42.630;23.382;2023-03-01T00:42:32;94875.84;;;5.64;100.00
12775;BME280;6451;42.630;23.382;2023-03-01T00:44:59;94874.03;;;5.59;100.00
12775;BME280;6451;42.630;23.382;2023-03-01T00:47:30;94881.44;;;5.53;100.00
12775;BME280;6451;42.630;23.382;2023-03-01T00:50:03;94879.94;;;5.47;100.00
12775;BME280;6451;42.630;23.382;2023-03-01T00:52:32;94855.34;;;5.40;100.00
12775;BME280;6451;42.630;23.382;2023-03-01T00:55:00;94872.69;;;5.34;100.00
12775;BME280;6451;42.630;23.382;2023-03-01T00:57:39;94853.25;;;5.37;100.00
12775;BME280;6451;42.630;23.382;2023-03-01T01:00:08;94870.69;;;5.53;100.00
12775;BME280;6451;42.630;23.382;2023-03-01T01:02:39;94863.00;;;5.61;100.00
12775;BME280;6451;42.630;23.382;2023-03-01T01:05:08;94874.03;;;5.59;100.00
12775;BME280;6451;42.630;23.382;2023-03-01T01:07:36;94869.56;;;5.54;100.00
12775;BME280;6451;42.630;23.382;2023-03-01T01:10:07;94868.19;;;5.43;100.00
12775;BME280;6451;42.630;23.382;2023-03-01T01:12:43;94872.16;;;5.59;100.00
12775;BME280;6451;42.630;23.382;2023-03-01T01:15:13;94845.06;;;5.42;100.00
12775;BME280;6451;42.630;23.382;2023-03-01T01:17:43;94875.94;;;5.58;100.00
12775;BME280;6451;42.630;23.382;2023-03-01T01:20:11;94853.13;;;5.56;100.00
12775;BME280;6451;42.630;23.382;2023-03-01T01:22:39;94847.97;;;5.46;100.00
12775;BME280;6451;42.630;23.382;2023-03-01T01:25:13;94832.22;;;5.39;100.00
12775;BME280;6451;42.630;23.382;2023-03-01T01:27:41;94866.66;;;5.65;100.00
12775;BME280;6451;42.630;23.382;2023-03-01T01:30:12;94859.91;;;5.53;100.00
12775;BME280;6451;42.630;23.382;2023-03-01T01:32:44;94864.59;;;5.62;100.00
12775;BME280;6451;42.630;23.382;2023-03-01T01:35:12;94870.06;;;5.56;100.00
12775;BME280;6451;42.630;23.382;2023-03-01T01:37:42;94861.59;;;5.63;100.00
12775;BME280;6451;42.630;23.382;2023-03-01T01:40:11;94862.19;;;5.60;100.00
12775;BME280;6451;42.630;23.382;2023-03-01T01:42:38;94871.47;;;5.68;100.00
12775;BME280;6451;42.630;23.382;2023-03-01T01:45:31;94871.47;;;5.68;100.00
12775;BME280;6451;42.630;23.382;2023-03-01T01:48:05;94871.34;;;5.73;100.00
12775;BME280;6451;42.630;23.382;2023-03-01T01:50:33;94868.66;;;5.73;100.00
12775;BME280;6451;42.630;23.382;2023-03-01T01:53:08;94828.59;;;5.57;100.00
12775;BME280;6451;42.630;23.382;2023-03-01T01:55:37;94824.63;;;5.55;100.00
12775;BME280;6451;42.630;23.382;2023-03-01T01:58:09;94823.91;;;5.49;100.00
12775;BME280;6451;42.630;23.382;2023-03-01T02:00:38;94840.22;;;5.67;100.00
12775;BME280;6451;42.630;23.382;2023-03-01T02:03:10;94844.91;;;5.75;100.00
12775;BME280;6451;42.630;23.382;2023-03-01T02:05:42;94843.72;;;5.67;100.00
12775;BME280;6451;42.630;23.382;2023-03-01T02:08:13;94843.03;;;5.75;100.00
12775;BME280;6451;42.630;23.382;2023-03-01T02:10:43;94845.28;;;5.82;100.00
12775;BME280;6451;42.630;23.382;2023-03-01T02:13:12;94798.72;;;5.45;100.00
12775;BME280;6451;42.630;23.382;2023-03-01T02:15:40;94838.13;;;5.77;100.00
12775;BME280;6451;42.630;23.382;2023-03-01T02:18:13;94756.41;;;5.23;100.00
12775;BME280;6451;42.630;23.382;2023-03-01T02:20:49;94841.94;;;5.76;100.00
12775;BME280;6451;42.630;23.382;2023-03-01T02:23:18;94847.41;;;5.71;100.00
12775;BME280;6451;42.630;23.382;2023-03-01T02:25:52;94842.34;;;5.70;100.00
12775;BME280;6451;42.630;23.382;2023-03-01T02:28:30;94833.78;;;5.54;100.00
12775;BME280;6451;42.630;23.382;2023-03-01T02:30:58;94844.94;;;5.61;100.00
12775;BME280;6451;42.630;23.382;2023-03-01T02:33:44;94843.75;;;5.53;100.00
12775;BME280;6451;42.630;23.382;2023-03-01T02:36:22;94856.19;;;5.63;100.00
12775;BME280;6451;42.630;23.382;2023-03-01T02:38:53;94834.00;;;5.44;100.00
12775;BME280;6451;42.630;23.382;2023-03-01T02:41:21;94781.53;;;5.05;100.00
12775;BME280;6451;42.630;23.382;2023-03-01T02:43:50;94824.06;;;5.17;100.00
12775;BME280;6451;42.630;23.382;2023-03-01T02:46:19;94796.69;;;5.15;100.00
12775;BME280;6451;42.630;23.382;2023-03-01T02:48:50;94859.22;;;5.48;100.00
12775;BME280;6451;42.630;23.382;2023-03-01T02:51:34;94821.94;;;5.27;100.00
12775;BME280;6451;42.630;23.382;2023-03-01T02:54:15;94864.78;;;5.51;100.00
12775;BME280;6451;42.630;23.382;2023-03-01T02:56:47;94858.91;;;5.49;100.00
12775;BME280;6451;42.630;23.382;2023-03-01T02:59:19;94852.81;;;5.44;100.00
12775;BME280;6451;42.630;23.382;2023-03-01T03:01:47;94827.63;;;5.26;100.00
12775;BME280;6451;42.630;23.382;2023-03-01T03:04:15;94858.91;;;5.49;100.00
12775;BME280;6451;42.630;23.382;2023-03-01T03:06:46;94838.63;;;5.29;100.00
12775;BME280;6451;42.630;23.382;2023-03-01T03:09:14;94860.31;;;5.33;100.00
12775;BME280;6451;42.630;23.382;2023-03-01T03:11:42;94836.09;;;5.19;100.00
12775;BME280;6451;42.630;23.382;2023-03-01T03:14:09;94848.38;;;5.25;100.00
12775;BME280;6451;42.630;23.382;2023-03-01T03:16:41;94826.44;;;5.05;100.00
12775;BME280;6451;42.630;23.382;2023-03-01T03:19:10;94839.91;;;5.32;100.00
12775;BME280;6451;42.630;23.382;2023-03-01T03:21:37;94807.13;;;5.16;100.00
12775;BME280;6451;42.630;23.382;2023-03-01T03:24:04;94858.03;;;5.40;100.00
12775;BME280;6451;42.630;23.382;2023-03-01T03:26:32;94856.03;;;5.46;100.00
12775;BME280;6451;42.630;23.382;2023-03-01T03:28:59;94684.09;;;4.31;100.00
12775;BME280;6451;42.630;23.382;2023-03-01T03:31:29;94825.25;;;5.24;100.00
12775;BME280;6451;42.630;23.382;2023-03-01T03:33:57;94863.09;;;5.55;100.00
12775;BME280;6451;42.630;23.382;2023-03-01T03:36:25;94853.84;;;5.48;100.00
12775;BME280;6451;42.630;23.382;2023-03-01T03:38:52;94829.13;;;5.32;100.00
12775;BME280;6451;42.630;23.382;2023-03-01T03:41:19;94863.66;;;5.66;100.00
12775;BME280;6451;42.630;23.382;2023-03-01T03:43:46;94865.16;;;5.58;100.00
12775;BME280;6451;42.630;23.382;2023-03-01T03:46:14;94868.38;;;5.61;100.00
12775;BME280;6451;42.630;23.382;2023-03-01T03:48:44;94812.91;;;5.23;100.00
12775;BME280;6451;42.630;23.382;2023-03-01T03:51:16;94856.59;;;5.56;100.00
12775;BME280;6451;42.630;23.382;2023-03-01T03:53:44;94861.66;;;5.72;100.00
12775;BME280;6451;42.630;23.382;2023-03-01T03:56:11;94866.94;;;5.77;100.00
12775;BME280;6451;42.630;23.382;2023-03-01T03:58:39;94861.75;;;5.80;100.00
12775;BME280;6451;42.630;23.382;2023-03-01T04:01:07;94850.81;;;5.63;100.00
12775;BME280;6451;42.630;23.382;2023-03-01T04:03:34;94848.75;;;5.60;100.00
12775;BME280;6451;42.630;23.382;2023-03-01T04:06:03;94864.25;;;5.77;100.00
12775;BME280;6451;42.630;23.382;2023-03-01T04:08:33;94867.94;;;5.81;100.00
12775;BME280;6451;42.630;23.382;2023-03-01T04:11:02;94731.34;;;4.73;100.00
12775;BME280;6451;42.630;23.382;2023-03-01T04:13:52;94851.53;;;5.55;100.00
12775;BME280;6451;42.630;23.382;2023-03-01T04:16:19;94870.16;;;5.65;100.00
12775;BME280;6451;42.630;23.382;2023-03-01T04:18:47;94874.66;;;5.56;100.00
12775;BME280;6451;42.630;23.382;2023-03-01T04:21:15;94860.88;;;5.57;100.00
12775;BME280;6451;42.630;23.382;2023-03-01T04:23:44;94869.44;;;5.59;100.00
12775;BME280;6451;42.630;23.382;2023-03-01T04:26:11;94851.84;;;5.53;100.00
12775;BME280;6451;42.630;23.382;2023-03-01T04:28:40;94872.06;;;5.51;100.00
12775;BME280;6451;42.630;23.382;2023-03-01T04:31:15;94829.34;;;5.22;100.00
12775;BME280;6451;42.630;23.382;2023-03-01T04:33:45;94875.06;;;5.49;100.00
12775;BME280;6451;42.630;23.382;2023-03-01T04:36:14;94861.03;;;5.39;100.00
12775;BME280;6451;42.630;23.382;2023-03-01T04:38:42;94867.69;;;5.41;100.00
12775;BME280;6451;42.630;23.382;2023-03-01T04:41:15;94828.03;;;5.19;100.00
12775;BME280;6451;42.630;23.382;2023-03-01T04:43:43;94837.50;;;5.30;100.00
12775;BME280;6451;42.630;23.382;2023-03-01T04:46:12;94875.06;;;5.36;100.00
12775;BME280;6451;42.630;23.382;2023-03-01T04:48:42;94798.09;;;4.98;100.00
12775;BME280;6451;42.630;23.382;2023-03-01T04:51:09;94860.31;;;5.47;100.00
12775;BME280;6451;42.630;23.382;2023-03-01T04:53:40;94866.41;;;5.52;100.00
12775;BME280;6451;42.630;23.382;2023-03-01T04:56:07;94849.84;;;5.45;100.00
12775;BME280;6451;42.630;23.382;2023-03-01T04:58:38;94855.72;;;5.47;100.00
12775;BME280;6451;42.630;23.382;2023-03-01T05:01:09;94858.34;;;5.39;100.00
12775;BME280;6451;42.630;23.382;2023-03-01T05:03:41;94862.19;;;5.60;100.00
12775;BME280;6451;42.630;23.382;2023-03-01T05:06:10;94864.91;;;5.46;100.00
12775;BME280;6451;42.630;23.382;2023-03-01T05:08:37;94856.91;;;5.41;100.00
12775;BME280;6451;42.630;23.382;2023-03-01T05:11:04;94862.91;;;5.38;100.00
12775;BME280;6451;42.630;23.382;2023-03-01T05:13:34;94868.19;;;5.43;100.00
12775;BME280;6451;42.630;23.382;2023-03-01T05:16:03;94849.47;;;5.24;100.00
12775;BME280;6451;42.630;23.382;2023-03-01T05:18:32;94873.38;;;5.40;100.00
12775;BME280;6451;42.630;23.382;2023-03-01T05:21:03;94863.31;;;5.32;100.00
12775;BME280;6451;42.630;23.382;2023-03-01T05:23:31;94869.19;;;5.34;100.00
12775;BME280;6451;42.630;23.382;2023-03-01T05:25:59;94858.13;;;5.35;100.00
12775;BME280;6451;42.630;23.382;2023-03-01T05:28:26;94852.84;;;5.30;100.00
12775;BME280;6451;42.630;23.382;2023-03-01T05:30:55;94862.00;;;5.43;100.00
12775;BME280;6451;42.630;23.382;2023-03-01T05:33:27;94851.63;;;5.36;100.00
12775;BME280;6451;42.630;23.382;2023-03-01T05:35:54;94850.25;;;5.39;100.00
12775;BME280;6451;42.630;23.382;2023-03-01T05:38:21;94854.94;;;5.33;100.00
12775;BME280;6451;42.630;23.382;2023-03-01T05:40:50;94859.44;;;5.38;100.00
12775;BME280;6451;42.630;23.382;2023-03-01T05:43:18;94865.50;;;5.43;100.00
12775;BME280;6451;42.630;23.382;2023-03-01T05:45:46;94865.78;;;5.42;100.00
12775;BME280;6451;42.630;23.382;2023-03-01T05:48:14;94830.16;;;5.22;100.00
12775;BME280;6451;42.630;23.382;2023-03-01T05:50:44;94870.75;;;5.62;100.00
12775;BME280;6451;42.630;23.382;2023-03-01T05:53:12;94875.53;;;5.65;100.00
12775;BME280;6451;42.630;23.382;2023-03-01T05:55:40;94864.69;;;5.56;100.00
12775;BME280;6451;42.630;23.382;2023-03-01T05:58:10;94888.03;;;5.61;100.00
12775;BME280;6451;42.630;23.382;2023-03-01T06:00:40;94883.84;;;5.55;100.00
12775;BME280;6451;42.630;23.382;2023-03-01T06:03:10;94883.91;;;5.64;100.00
12775;BME280;6451;42.630;23.382;2023-03-01T06:05:37;94882.25;;;5.54;100.00
12775;BME280;6451;42.630;23.382;2023-03-01T06:08:06;94864.50;;;5.39;100.00
12775;BME280;6451;42.630;23.382;2023-03-01T06:10:34;94871.56;;;5.49;100.00
12775;BME280;6451;42.630;23.382;2023-03-01T06:13:01;94885.59;;;5.59;100.00
12775;BME280;6451;42.630;23.382;2023-03-01T06:15:28;94865.50;;;5.43;100.00
12775;BME280;6451;42.630;23.382;2023-03-01T06:17:57;94900.56;;;5.66;100.00
12775;BME280;6451;42.630;23.382;2023-03-01T06:20:26;94870.06;;;5.43;100.00
12775;BME280;6451;42.630;23.382;2023-03-01T06:22:55;94897.16;;;5.74;100.00
12775;BME280;6451;42.630;23.382;2023-03-01T06:25:25;94904.25;;;5.83;100.00
12775;BME280;6451;42.630;23.382;2023-03-01T06:27:52;94897.16;;;5.74;100.00
12775;BME280;6451;42.630;23.382;2023-03-01T06:30:21;94891.06;;;5.82;100.00
12775;BME280;6451;42.630;23.382;2023-03-01T06:32:48;94861.09;;;5.61;100.00
12775;BME280;6451;42.630;23.382;2023-03-01T06:35:17;94841.50;;;5.33;100.00
12775;BME280;6451;42.630;23.382;2023-03-01T06:37:44;94892.88;;;5.73;100.00
12775;BME280;6451;42.630;23.382;2023-03-01T06:40:12;94896.94;;;5.98;100.00
12775;BME280;6451;42.630;23.382;2023-03-01T06:42:43;94901.03;;;5.95;100.00
12775;BME280;6451;42.630;23.382;2023-03-01T06:45:10;94892.88;;;6.00;100.00
12775;BME280;6451;42.630;23.382;2023-03-01T06:47:37;94888.19;;;5.92;100.00
12775;BME280;6451;42.630;23.382;2023-03-01T06:50:05;94902.44;;;6.06;100.00
12775;BME280;6451;42.630;23.382;2023-03-01T06:52:32;94909.91;;;6.09;100.00
12775;BME280;6451;42.630;23.382;2023-03-01T06:54:59;94900.81;;;6.05;100.00
12775;BME280;6451;42.630;23.382;2023-03-01T06:57:26;94902.53;;;5.88;100.00
12775;BME280;6451;42.630;23.382;2023-03-01T06:59:54;94907.44;;;5.99;100.00
12775;BME280;6451;42.630;23.382;2023-03-01T07:02:22;94909.34;;;5.99;100.00
12775;BME280;6451;42.630;23.382;2023-03-01T07:04:49;94904.91;;;6.03;100.00
12775;BME280;6451;42.630;23.382;2023-03-01T07:07:16;94911.72;;;6.00;100.00
12775;BME280;6451;42.630;23.382;2023-03-01T07:09:44;94886.69;;;6.00;100.00
12775;BME280;6451;42.630;23.382;2023-03-01T07:12:11;94902.22;;;6.03;100.00
12775;BME280;6451;42.630;23.382;2023-03-01T07:14:38;94869.03;;;5.80;100.00
12775;BME280;6451;42.630;23.382;2023-03-01T07:17:07;94901.13;;;6.04;100.00
12775;BME280;6451;42.630;23.382;2023-03-01T07:19:34;94891.03;;;6.09;100.00
12775;BME280;6451;42.630;23.382;2023-03-01T07:22:01;94889.28;;;6.27;100.00
12775;BME280;6451;42.630;23.382;2023-03-01T07:24:30;94860.25;;;6.24;100.00
12775;BME280;6451;42.630;23.382;2023-03-01T07:26:57;94884.63;;;6.64;100.00
12775;BME280;6451;42.630;23.382;2023-03-01T07:29:24;94876.53;;;6.41;100.00
12775;BME280;6451;42.630;23.382;2023-03-01T07:31:51;94892.59;;;6.47;100.00
12775;BME280;6451;42.630;23.382;2023-03-01T07:34:19;94889.13;;;6.46;100.00
12775;BME280;6451;42.630;23.382;2023-03-01T07:36:46;94888.84;;;6.34;100.00
12775;BME280;6451;42.630;23.382;2023-03-01T07:39:13;94867.97;;;6.17;100.00
12775;BME280;6451;42.630;23.382;2023-03-01T07:41:40;94894.50;;;6.46;100.00
12775;BME280;6451;42.630;23.382;2023-03-01T07:44:07;94887.91;;;6.52;100.00
12775;BME280;6451;42.630;23.382;2023-03-01T07:46:34;94869.13;;;6.47;100.00
12775;BME280;6451;42.630;23.382;2023-03-01T07:49:01;94881.19;;;6.50;100.00
12775;BME280;6451;42.630;23.382;2023-03-01T07:51:29;94883.94;;;6.36;100.00
12775;BME280;6451;42.630;23.382;2023-03-01T07:53:56;94881.63;;;6.43;100.00
12775;BME280;6451;42.630;23.382;2023-03-01T07:56:23;94865.69;;;6.55;100.00
12775;BME280;6451;42.630;23.382;2023-03-01T07:58:50;94864.72;;;6.51;100.00
12775;BME280;6451;42.630;23.382;2023-03-01T08:01:19;94863.25;;;6.45;100.00
12775;BME280;6451;42.630;23.382;2023-03-01T08:03:47;94855.66;;;6.47;100.00
12775;BME280;6451;42.630;23.382;2023-03-01T08:06:16;94708.81;;;5.46;100.00
12775;BME280;6451;42.630;23.382;2023-03-01T08:08:45;94866.38;;;6.61;100.00
12775;BME280;6451;42.630;23.382;2023-03-01T08:11:13;94864.53;;;6.48;100.00
12775;BME280;6451;42.630;23.382;2023-03-01T08:13:41;94864.91;;;6.32;100.00
12775;BME280;6451;42.630;23.382;2023-03-01T08:16:10;94847.47;;;6.30;100.00
12775;BME280;6451;42.630;23.382;2023-03-01T08:18:37;94855.66;;;6.47;100.00
12775;BME280;6451;42.630;23.382;2023-03-01T08:21:06;94865.66;;;6.47;100.00
12775;BME280;6451;42.630;23.382;2023-03-01T08:23:34;94824.31;;;6.29;100.00
12775;BME280;6451;42.630;23.382;2023-03-01T08:26:07;94863.97;;;6.59;100.00
12775;BME280;6451;42.630;23.382;2023-03-01T08:28:34;94854.47;;;6.62;100.00
12775;BME280;6451;42.630;23.382;2023-03-01T08:31:01;94867.38;;;6.74;100.00
12775;BME280;6451;42.630;23.382;2023-03-01T08:33:29;94848.94;;;6.67;100.00
12775;BME280;6451;42.630;23.382;2023-03-01T08:36:03;94854.66;;;6.65;100.00
12775;BME280;6451;42.630;23.382;2023-03-01T08:38:30;94852.88;;;6.83;100.00
12775;BME280;6451;42.630;23.382;2023-03-01T08:41:00;94847.63;;;6.87;100.00
12775;BME280;6451;42.630;23.382;2023-03-01T08:43:28;94846.66;;;7.14;100.00
12775;BME280;6451;42.630;23.382;2023-03-01T08:45:55;94845.13;;;6.90;100.00
12775;BME280;6451;42.630;23.382;2023-03-01T08:48:23;94842.47;;;6.99;100.00
12775;BME280;6451;42.630;23.382;2023-03-01T08:50:50;94857.66;;;6.95;100.00
12775;BME280;6451;42.630;23.382;2023-03-01T08:53:17;94840.47;;;6.82;100.00
12775;BME280;6451;42.630;23.382;2023-03-01T08:55:44;94856.72;;;6.91;100.00
12775;BME280;6451;42.630;23.382;2023-03-01T08:58:11;94855.19;;;7.07;100.00
12775;BME280;6451;42.630;23.382;2023-03-01T09:00:39;94836.31;;;7.07;100.00
12775;BME280;6451;42.630;23.382;2023-03-01T09:03:06;94850.56;;;6.99;100.00
12775;BME280;6451;42.630;23.382;2023-03-01T09:05:34;94842.41;;;7.21;100.00
12775;BME280;6451;42.630;23.382;2023-03-01T09:08:02;94854.38;;;7.38;100.00
12775;BME280;6451;42.630;23.382;2023-03-01T09:10:29;94841.47;;;7.35;100.00
12775;BME280;6451;42.630;23.382;2023-03-01T09:12:56;94860.03;;;7.28;100.00
12775;BME280;6451;42.630;23.382;2023-03-01T09:15:23;94858.25;;;7.14;100.00
12775;BME280;6451;42.630;23.382;2023-03-01T09:17:51;94856.25;;;7.37;100.00
12775;BME280;6451;42.630;23.382;2023-03-01T09:20:18;94847.63;;;7.27;100.00
12775;BME280;6451;42.630;23.382;2023-03-01T09:22:44;94788.50;;;6.99;100.00
12775;BME280;6451;42.630;23.382;2023-03-01T09:25:11;94843.31;;;7.74;100.00
12775;BME280;6451;42.630;23.382;2023-03-01T09:27:38;94841.25;;;7.79;100.00
12775;BME280;6451;42.630;23.382;2023-03-01T09:30:06;94837.75;;;7.79;100.00
12775;BME280;6451;42.630;23.382;2023-03-01T09:32:34;94846.31;;;7.72;100.00
12775;BME280;6451;42.630;23.382;2023-03-01T09:35:02;94842.38;;;7.70;100.00
12775;BME280;6451;42.630;23.382;2023-03-01T09:37:32;94842.03;;;7.63;100.00
12775;BME280;6451;42.630;23.382;2023-03-01T09:39:59;94847.59;;;7.66;100.00
12775;BME280;6451;42.630;23.382;2023-03-01T09:42:28;94833.78;;;7.59;100.00
12775;BME280;6451;42.630;23.382;2023-03-01T09:45:00;94820.88;;;7.56;100.00
12775;BME280;6451;42.630;23.382;2023-03-01T09:47:30;94840.75;;;7.60;100.00
12775;BME280;6451;42.630;23.382;2023-03-01T09:50:04;94817.56;;;7.59;100.00
12775;BME280;6451;42.630;23.382;2023-03-01T09:52:39;94793.56;;;7.58;100.00
12775;BME280;6451;42.630;23.382;2023-03-01T09:55:11;94826.47;;;7.68;100.00
12775;BME280;6451;42.630;23.382;2023-03-01T09:57:43;94836.19;;;7.78;100.00
12775;BME280;6451;42.630;23.382;2023-03-01T10:00:20;94814.91;;;7.85;100.00
12775;BME280;6451;42.630;23.382;2023-03-01T10:02:53;94826.63;;;7.80;100.00
12775;BME280;6451;42.630;23.382;2023-03-01T10:05:35;94815.88;;;7.98;100.00
12775;BME280;6451;42.630;23.382;2023-03-01T10:08:36;94814.56;;;7.87;100.00
12775;BME280;6451;42.630;23.382;2023-03-01T10:11:18;94817.13;;;7.74;100.00
12775;BME280;6451;42.630;23.382;2023-03-01T10:13:48;94812.63;;;7.52;100.00
12775;BME280;6451;42.630;23.382;2023-03-01T10:16:22;94802.13;;;7.51;100.00
12775;BME280;6451;42.630;23.382;2023-03-01T10:18:53;94765.19;;;7.03;100.00
12775;BME280;6451;42.630;23.382;2023-03-01T10:21:25;94816.88;;;7.36;100.00
12775;BME280;6451;42.630;23.382;2023-03-01T10:23:53;94783.06;;;7.39;100.00
12775;BME280;6451;42.630;23.382;2023-03-01T10:26:54;94801.06;;;7.78;100.00
12775;BME280;6451;42.630;23.382;2023-03-01T10:29:24;94781.47;;;7.46;100.00
12775;BME280;6451;42.630;23.382;2023-03-01T10:31:53;94797.25;;;7.70;100.00
12775;BME280;6451;42.630;23.382;2023-03-01T10:34:22;94780.88;;;7.67;100.00
12775;BME280;6451;42.630;23.382;2023-03-01T10:36:57;94764.97;;;7.48;100.00
12775;BME280;6451;42.630;23.382;2023-03-01T10:39:26;94785.00;;;7.64;100.00
12775;BME280;6451;42.630;23.382;2023-03-01T10:42:04;94769.56;;;7.47;100.00
12775;BME280;6451;42.630;23.382;2023-03-01T10:44:43;94789.00;;;7.93;100.00
12775;BME280;6451;42.630;23.382;2023-03-01T10:47:17;94738.59;;;7.71;100.00
12775;BME280;6451;42.630;23.382;2023-03-01T10:49:57;94766.91;;;7.99;100.00
12775;BME280;6451;42.630;23.382;2023-03-01T10:52:29;94769.56;;;8.25;100.00
12775;BME280;6451;42.630;23.382;2023-03-01T10:54:59;94770.22;;;8.14;100.00
12775;BME280;6451;42.630;23.382;2023-03-01T10:57:31;94773.88;;;8.35;100.00
12775;BME280;6451;42.630;23.382;2023-03-01T11:00:17;94773.19;;;8.55;100.00
12775;BME280;6451;42.630;23.382;2023-03-01T11:02:48;94773.06;;;8.43;100.00
12775;BME280;6451;42.630;23.382;2023-03-01T11:05:23;94759.06;;;8.41;100.00
12775;BME280;6451;42.630;23.382;2023-03-01T11:07:53;94758.84;;;8.63;100.00
12775;BME280;6451;42.630;23.382;2023-03-01T11:10:23;94773.50;;;8.62;100.00
12775;BME280;6451;42.630;23.382;2023-03-01T11:12:51;94768.44;;;8.52;100.00
12775;BME280;6451;42.630;23.382;2023-03-01T11:15:25;94745.41;;;8.29;100.00
12775;BME280;6451;42.630;23.382;2023-03-01T11:17:52;94771.28;;;8.56;100.00
12775;BME280;6451;42.630;23.382;2023-03-01T11:20:25;94771.31;;;8.39;100.00
12775;BME280;6451;42.630;23.382;2023-03-01T11:22:56;94770.34;;;8.26;100.00
12775;BME280;6451;42.630;23.382;2023-03-01T11:25:26;94752.25;;;8.09;100.00
12775;BME280;6451;42.630;23.382;2023-03-01T11:27:54;94781.34;;;8.21;100.00
12775;BME280;6451;42.630;23.382;2023-03-01T11:30:26;94779.25;;;8.26;100.00
12775;BME280;6451;42.630;23.382;2023-03-01T11:33:13;94777.38;;;8.09;100.00
12775;BME280;6451;42.630;23.382;2023-03-01T11:35:49;94761.94;;;8.19;100.00
12775;BME280;6451;42.630;23.382;2023-03-01T11:38:23;94771.81;;;8.23;100.00
12775;BME280;6451;42.630;23.382;2023-03-01T11:40:54;94761.44;;;8.43;100.00
12775;BME280;6451;42.630;23.382;2023-03-01T11:43:30;94758.25;;;8.32;100.00
12775;BME280;6451;42.630;23.382;2023-03-01T11:46:27;94739.06;;;8.07;100.00
12775;BME280;6451;42.630;23.382;2023-03-01T11:49:09;94749.38;;;8.40;100.00
12775;BME280;6451;42.630;23.382;2023-03-01T11:54:28;94748.28;;;8.15;100.00
12775;BME280;6451;42.630;23.382;2023-03-01T11:57:00;94742.38;;;8.22;100.00
12775;BME280;6451;42.630;23.382;2023-03-01T11:59:49;94744.91;;;8.35;100.00
12775;BME280;6451;42.630;23.382;2023-03-01T12:02:45;94733.56;;;8.51;100.00
12775;BME280;6451;42.630;23.382;2023-03-01T12:05:49;94732.25;;;8.66;100.00
12775;BME280;6451;42.630;23.382;2023-03-01T12:08:27;94554.63;;;7.72;100.00
12775;BME280;6451;42.630;23.382;2023-03-01T12:11:06;94723.28;;;9.12;100.00
12775;BME280;6451;42.630;23.382;2023-03-01T12:13:56;94670.75;;;8.54;100.00
12775;BME280;6451;42.630;23.382;2023-03-01T12:16:36;94719.56;;;8.96;100.00
12775;BME280;6451;42.630;23.382;2023-03-01T12:19:27;94718.22;;;9.10;100.00
12775;BME280;6451;42.630;23.382;2023-03-01T12:22:11;94712.22;;;9.05;100.00
12775;BME280;6451;42.630;23.382;2023-03-01T12:27:52;94709.25;;;9.18;100.00
12775;BME280;6451;42.630;23.382;2023-03-01T12:30:30;94706.75;;;9.13;100.00
12775;BME280;6451;42.630;23.382;2023-03-01T12:33:14;94695.03;;;9.01;100.00
12775;BME280;6451;42.630;23.382;2023-03-01T12:35:54;94703.16;;;9.51;100.00
12775;BME280;6451;42.630;23.382;2023-03-01T12:38:33;94707.38;;;9.82;100.00
12775;BME280;6451;42.630;23.382;2023-03-01T12:41:37;94701.00;;;9.57;100.00
12775;BME280;6451;42.630;23.382;2023-03-01T12:44:20;94697.56;;;9.27;100.00
12775;BME280;6451;42.630;23.382;2023-03-01T12:46:59;94698.28;;;9.15;100.00
12775;BME280;6451;42.630;23.382;2023-03-01T12:49:34;94700.31;;;8.88;100.00
12775;BME280;6451;42.630;23.382;2023-03-01T12:52:10;94698.41;;;8.89;100.00
12775;BME280;6451;42.630;23.382;2023-03-01T12:54:41;94700.41;;;8.71;100.00
12775;BME280;6451;42.630;23.382;2023-03-01T12:57:14;94702.50;;;8.74;100.00
12775;BME280;6451;42.630;23.382;2023-03-01T12:59:53;94708.16;;;8.81;100.00
12775;BME280;6451;42.630;23.382;2023-03-01T13:02:31;94702.00;;;8.72;100.00
12775;BME280;6451;42.630;23.382;2023-03-01T13:05:20;94688.69;;;8.67;100.00
12775;BME280;6451;42.630;23.382;2023-03-01T13:07:55;94702.19;;;8.67;100.00
12775;BME280;6451;42.630;23.382;2023-03-01T13:10:29;94705.19;;;8.66;100.00
12775;BME280;6451;42.630;23.382;2023-03-01T13:13:12;94692.84;;;8.56;100.00
12775;BME280;6451;42.630;23.382;2023-03-01T13:15:41;94709.56;;;8.49;100.00
12775;BME280;6451;42.630;23.382;2023-03-01T13:18:32;94710.25;;;8.38;100.00
12775;BME280;6451;42.630;23.382;2023-03-01T13:21:03;94721.84;;;8.47;100.00
12775;BME280;6451;42.630;23.382;2023-03-01T13:23:36;94704.19;;;8.32;100.00
12775;BME280;6451;42.630;23.382;2023-03-01T13:26:07;94710.72;;;8.40;100.00
12775;BME280;6451;42.630;23.382;2023-03-01T13:28:42;94699.84;;;8.57;100.00